Time;durP1;ratioP1;P1;durP2;ratioP2;P2;SDS_P1;SDS_P2;PMS_P1;PMS_P2;Temp;Humidity;BMP_temperature;BMP_pressure;BME280_temperature;BME280_humidity;BME280_pressure;Samples;Min_cycle;Max_cycle;Signal;HPM_P1;HPM_P2
2023/09/20 00:00:10;;;;;;;4.40;1.98;;;22.60;96.70;;;;;;5070202;28;20138;-81
2023/09/20 00:02:43;;;;;;;7.28;2.03;;;22.50;96.70;;;;;;5069332;28;20039;-80
2023/09/20 00:05:14;;;;;;;7.90;2.00;;;22.60;96.70;;;;;;5086151;28;20055;-81
2023/09/20 00:07:43;;;;;;;7.10;2.25;;;22.60;96.70;;;;;;5116642;27;20135;-81
2023/09/20 00:10:15;;;;;;;6.72;1.90;;;22.50;96.70;;;;;;5086622;28;20159;-81
2023/09/20 00:12:44;;;;;;;7.78;2.42;;;22.50;96.70;;;;;;5104566;28;20059;-81
2023/09/20 00:15:12;;;;;;;9.35;2.45;;;22.50;96.70;;;;;;5066110;28;20555;-81
2023/09/20 00:17:42;;;;;;;5.40;1.83;;;22.50;96.70;;;;;;5063478;28;20127;-81
2023/09/20 00:20:14;;;;;;;5.30;1.65;;;22.60;96.70;;;;;;5108717;27;20505;-80
2023/09/20 00:22:45;;;;;;;6.30;1.88;;;22.60;96.70;;;;;;5079213;28;20101;-80
2023/09/20 00:25:14;;;;;;;5.35;2.10;;;22.50;96.70;;;;;;5086343;28;20048;-80
2023/09/20 00:27:46;;;;;;;5.90;1.70;;;22.40;96.70;;;;;;5104898;28;20499;-81
2023/09/20 00:30:17;;;;;;;6.72;1.85;;;22.40;96.70;;;;;;5086789;28;20105;-80
2023/09/20 00:32:47;;;;;;;5.05;2.03;;;22.40;96.70;;;;;;5105128;28;20043;-79
2023/09/20 00:35:19;;;;;;;6.88;2.42;;;22.40;96.70;;;;;;5104652;28;20121;-81
2023/09/20 00:37:49;;;;;;;6.28;2.10;;;22.40;96.70;;;;;;5086582;28;20078;-79
2023/09/20 00:40:18;;;;;;;9.05;2.15;;;22.30;96.70;;;;;;5070209;28;20150;-80
2023/09/20 00:42:49;;;;;;;7.13;2.33;;;22.40;96.70;;;;;;5099863;28;20096;-77
2023/09/20 00:45:19;;;;;;;6.80;2.50;;;22.50;96.70;;;;;;5104625;28;20040;-78
2023/09/20 00:47:55;;;;;;;8.63;2.85;;;22.50;96.70;;;;;;5068779;28;20054;-78
2023/09/20 00:50:29;;;;;;;9.82;2.38;;;22.40;96.70;;;;;;5086699;28;20048;-80
2023/09/20 00:53:02;;;;;;;6.18;2.13;;;22.40;96.70;;;;;;5066643;28;20071;-81
2023/09/20 00:55:33;;;;;;;5.57;2.15;;;22.40;96.70;;;;;;5083917;28;20100;-78
2023/09/20 00:58:04;;;;;;;6.18;2.05;;;22.30;96.70;;;;;;5103598;28;20046;-79
2023/09/20 01:00:33;;;;;;;5.85;1.85;;;22.30;96.70;;;;;;5086441;28;20128;-78
2023/09/20 01:03:04;;;;;;;7.90;2.03;;;22.30;96.70;;;;;;5069017;28;20401;-78
2023/09/20 01:05:36;;;;;;;5.22;1.85;;;22.30;96.70;;;;;;5086463;28;20047;-78
2023/09/20 01:08:06;;;;;;;6.57;2.08;;;22.20;96.70;;;;;;5085931;28;20077;-78
2023/09/20 01:10:37;;;;;;;6.18;1.75;;;22.10;96.70;;;;;;5078045;28;20043;-78
2023/09/20 01:13:09;;;;;;;5.30;1.70;;;22.00;96.70;;;;;;5106158;28;20525;-78
2023/09/20 01:15:37;;;;;;;6.38;1.98;;;22.00;96.70;;;;;;5106731;28;20570;-79
2023/09/20 01:18:08;;;;;;;6.38;1.80;;;22.10;96.70;;;;;;5090116;28;20040;-79
2023/09/20 01:20:39;;;;;;;6.72;2.53;;;22.00;96.70;;;;;;5102511;28;20055;-80
2023/09/20 01:23:10;;;;;;;5.57;1.70;;;21.90;96.70;;;;;;5090338;28;20201;-79
2023/09/20 01:25:43;;;;;;;7.57;2.08;;;21.90;96.70;;;;;;5069127;28;20044;-78
2023/09/20 01:28:12;;;;;;;7.60;2.00;;;21.90;96.70;;;;;;5087656;28;20051;-79
2023/09/20 01:30:41;;;;;;;6.13;1.80;;;21.90;96.70;;;;;;5088156;28;20042;-79
2023/09/20 01:33:12;;;;;;;6.68;2.08;;;21.90;96.70;;;;;;5101670;28;20044;-79
2023/09/20 01:35:43;;;;;;;6.63;2.05;;;21.80;96.70;;;;;;5089703;28;20048;-80
2023/09/20 01:38:13;;;;;;;5.88;1.75;;;21.70;96.70;;;;;;5085500;28;20055;-80
2023/09/20 01:40:41;;;;;;;5.85;1.85;;;21.60;96.70;;;;;;5085514;28;20084;-78
2023/09/20 01:43:11;;;;;;;5.82;2.10;;;21.60;96.70;;;;;;5087201;28;20048;-79
2023/09/20 01:45:42;;;;;;;5.65;1.85;;;21.60;96.70;;;;;;5086394;28;20052;-80
2023/09/20 01:48:11;;;;;;;5.10;1.88;;;21.60;96.70;;;;;;5069458;28;20044;-81
2023/09/20 01:50:42;;;;;;;4.40;1.83;;;21.60;96.70;;;;;;5087174;28;20048;-81
2023/09/20 01:53:14;;;;;;;5.05;1.40;;;21.60;96.70;;;;;;5087018;28;20052;-81
2023/09/20 01:55:43;;;;;;;6.80;1.60;;;21.70;96.70;;;;;;5067643;28;20036;-81
2023/09/20 01:58:14;;;;;;;6.03;1.65;;;21.70;96.70;;;;;;5069558;28;20048;-81
2023/09/20 02:00:43;;;;;;;4.82;2.08;;;21.80;96.70;;;;;;5088088;28;20040;-81
2023/09/20 02:03:16;;;;;;;7.90;2.28;;;21.70;96.70;;;;;;5069971;28;20071;-81
2023/09/20 02:05:49;;;;;;;6.32;1.77;;;21.60;96.70;;;;;;5069878;28;20052;-80
2023/09/20 02:08:19;;;;;;;6.13;1.50;;;21.50;96.70;;;;;;5087726;28;20043;-80
2023/09/20 02:10:47;;;;;;;4.75;2.00;;;21.50;96.70;;;;;;5085998;28;20063;-81
2023/09/20 02:13:17;;;;;;;6.63;2.15;;;21.50;96.70;;;;;;5086165;28;20467;-80
2023/09/20 02:15:47;;;;;;;5.57;2.13;;;21.70;96.70;;;;;;5087780;28;20044;-80
2023/09/20 02:18:16;;;;;;;6.55;2.47;;;21.70;96.70;;;;;;5083771;28;20040;-81
2023/09/20 02:20:44;;;;;;;4.25;2.17;;;21.60;96.70;;;;;;5086179;28;20052;-81
2023/09/20 02:23:12;;;;;;;5.75;1.90;;;21.60;96.70;;;;;;5068535;28;20051;-81
2023/09/20 02:25:45;;;;;;;7.55;2.83;;;21.70;96.70;;;;;;5068959;28;20056;-81
2023/09/20 02:28:14;;;;;;;6.55;2.03;;;21.70;96.70;;;;;;5069119;28;20048;-80
2023/09/20 02:30:42;;;;;;;5.80;2.10;;;21.70;96.70;;;;;;5084774;28;20044;-81
2023/09/20 02:33:14;;;;;;;6.22;2.33;;;21.70;96.70;;;;;;5083653;28;20119;-81
2023/09/20 02:35:45;;;;;;;9.90;2.85;;;21.60;96.70;;;;;;5068933;28;20055;-81
2023/09/20 02:38:13;;;;;;;9.25;2.70;;;21.60;96.70;;;;;;5085301;28;20425;-81
2023/09/20 02:40:45;;;;;;;4.90;2.53;;;21.60;96.70;;;;;;5069138;28;20081;-81
2023/09/20 02:43:16;;;;;;;4.03;1.98;;;21.60;96.70;;;;;;5081813;28;20048;-81
2023/09/20 02:45:45;;;;;;;5.13;2.20;;;21.60;96.70;;;;;;5083252;28;20093;-80
2023/09/20 02:48:14;;;;;;;5.82;2.25;;;21.60;96.70;;;;;;5081532;28;20081;-80
2023/09/20 02:50:44;;;;;;;6.25;2.10;;;21.60;96.70;;;;;;5065673;28;20055;-81
2023/09/20 02:53:13;;;;;;;9.65;2.55;;;21.70;96.70;;;;;;5067648;28;20129;-80
2023/09/20 02:55:42;;;;;;;5.90;2.42;;;21.70;96.70;;;;;;5083267;28;20063;-80
2023/09/20 02:58:10;;;;;;;6.88;2.58;;;21.60;96.70;;;;;;5067997;28;20086;-79
2023/09/20 03:00:46;;;;;;;8.85;2.83;;;21.60;96.70;;;;;;5084206;28;20090;-79
2023/09/20 03:03:18;;;;;;;5.63;2.47;;;21.60;96.70;;;;;;5084408;28;20545;-80
2023/09/20 03:05:46;;;;;;;7.15;2.65;;;21.60;96.70;;;;;;5067382;28;20044;-79
2023/09/20 03:08:14;;;;;;;6.13;2.63;;;21.50;96.70;;;;;;5061138;28;20043;-79
2023/09/20 03:10:43;;;;;;;7.22;2.65;;;21.50;96.70;;;;;;5067153;28;20164;-80
2023/09/20 03:13:16;;;;;;;10.98;2.38;;;21.60;96.70;;;;;;5083736;28;20058;-80
2023/09/20 03:15:54;;;;;;;;;;;21.60;96.70;;;;;;5068284;28;20055;-81
2023/09/20 03:18:25;;;;;;;5.63;2.45;;;21.60;96.70;;;;;;5079763;28;19932;-79
2023/09/20 03:21:05;;;;;;;4.82;2.28;;;21.60;96.70;;;;;;5103179;27;20048;-80
2023/09/20 03:23:35;;;;;;;6.75;2.47;;;21.70;96.70;;;;;;5085299;28;20119;-79
2023/09/20 03:26:06;;;;;;;5.97;2.72;;;21.60;96.70;;;;;;5083905;28;20044;-80
2023/09/20 03:28:35;;;;;;;6.38;2.30;;;21.50;96.70;;;;;;5085227;28;20101;-80
2023/09/20 03:31:10;;;;;;;6.32;1.85;;;21.60;96.70;;;;;;5083411;28;20047;-79
2023/09/20 03:33:42;;;;;;;6.50;2.42;;;21.60;96.70;;;;;;5083064;28;20112;-80
2023/09/20 03:36:16;;;;;;;5.60;2.42;;;21.60;96.70;;;;;;5067453;28;20162;-80
2023/09/20 03:38:47;;;;;;;6.38;2.47;;;21.60;96.70;;;;;;5063809;28;20059;-80
2023/09/20 03:41:16;;;;;;;6.05;2.10;;;21.60;96.70;;;;;;5082885;28;20044;-81
2023/09/20 03:43:45;;;;;;;6.10;2.08;;;21.40;96.70;;;;;;5084620;28;20075;-81
2023/09/20 03:46:16;;;;;;;4.47;2.05;;;21.30;96.70;;;;;;5067625;28;20051;-80
2023/09/20 03:48:46;;;;;;;6.88;2.10;;;21.40;96.70;;;;;;5063404;28;20128;-79
2023/09/20 03:51:17;;;;;;;8.60;2.10;;;21.30;96.70;;;;;;5082104;28;20052;-79
2023/09/20 03:53:49;;;;;;;6.78;2.40;;;21.40;96.70;;;;;;5083203;28;20535;-79
2023/09/20 03:56:21;;;;;;;6.85;2.17;;;21.30;96.70;;;;;;5082601;28;20093;-80
2023/09/20 03:58:50;;;;;;;5.97;1.98;;;21.30;96.70;;;;;;5066167;28;20044;-79
2023/09/20 04:01:20;;;;;;;6.70;2.28;;;21.30;96.70;;;;;;5086551;28;20470;-79
2023/09/20 04:03:49;;;;;;;9.30;2.38;;;21.40;96.70;;;;;;5065320;28;20062;-79
2023/09/20 04:06:17;;;;;;;6.13;2.60;;;21.40;96.70;;;;;;5077863;28;20059;-80
2023/09/20 04:08:45;;;;;;;6.20;2.50;;;21.40;96.70;;;;;;5081712;28;20047;-80
2023/09/20 04:11:13;;;;;;;6.15;2.25;;;21.50;96.70;;;;;;5084917;28;20418;-80
2023/09/20 04:13:41;;;;;;;6.85;2.20;;;21.60;96.70;;;;;;5082799;28;20117;-80
2023/09/20 04:16:09;;;;;;;6.32;2.35;;;21.60;96.70;;;;;;5082876;28;20036;-81
2023/09/20 04:18:40;;;;;;;5.05;2.60;;;21.50;96.70;;;;;;5079327;28;20052;-80
2023/09/20 04:21:08;;;;;;;5.05;2.50;;;21.50;96.70;;;;;;5083489;28;20047;-80
2023/09/20 04:23:36;;;;;;;7.25;2.42;;;21.50;96.70;;;;;;5083275;28;21205;-80
2023/09/20 04:26:04;;;;;;;6.15;2.30;;;21.40;96.70;;;;;;5063405;28;20139;-80
2023/09/20 04:28:33;;;;;;;4.88;2.30;;;21.30;96.70;;;;;;5081540;28;20494;-80
2023/09/20 04:31:02;;;;;;;6.60;2.72;;;21.30;96.70;;;;;;5085715;28;20579;-80
2023/09/20 04:33:30;;;;;;;5.53;2.30;;;21.30;96.70;;;;;;5080164;28;20049;-80
2023/09/20 04:36:04;;;;;;;5.68;2.30;;;21.20;96.70;;;;;;5076323;28;20064;-81
2023/09/20 04:38:33;;;;;;;7.55;2.72;;;21.20;96.70;;;;;;5066266;28;20080;-80
2023/09/20 04:41:01;;;;;;;7.97;2.63;;;21.20;96.70;;;;;;5083556;28;20050;-80
2023/09/20 04:43:30;;;;;;;6.85;2.13;;;21.20;96.70;;;;;;5083222;28;20658;-81
2023/09/20 04:46:02;;;;;;;6.32;2.22;;;21.20;96.70;;;;;;5066615;28;20451;-81
2023/09/20 04:48:32;;;;;;;5.18;2.08;;;21.20;96.70;;;;;;5078803;28;20048;-81
2023/09/20 04:51:02;;;;;;;7.43;2.22;;;21.20;96.70;;;;;;5069820;28;20040;-80
2023/09/20 04:53:33;;;;;;;6.95;2.13;;;21.30;96.70;;;;;;5083890;28;20144;-81
2023/09/20 04:56:02;;;;;;;4.00;2.20;;;21.20;96.70;;;;;;5069969;28;20143;-81
2023/09/20 04:58:30;;;;;;;4.00;1.83;;;21.20;96.70;;;;;;5070050;28;20074;-81
2023/09/20 05:00:59;;;;;;;6.38;2.17;;;21.30;96.70;;;;;;5086457;28;20063;-80
2023/09/20 05:03:28;;;;;;;4.60;2.30;;;21.20;96.70;;;;;;5087003;28;20036;-81
2023/09/20 05:05:57;;;;;;;5.65;2.60;;;21.20;96.70;;;;;;5086627;28;20390;-80
2023/09/20 05:08:26;;;;;;;5.72;2.40;;;21.20;96.70;;;;;;5086524;28;20152;-81
2023/09/20 05:10:55;;;;;;;8.05;2.85;;;21.20;96.70;;;;;;5070159;28;20149;-81
2023/09/20 05:13:24;;;;;;;7.47;2.63;;;21.20;96.70;;;;;;5086787;28;20060;-80
2023/09/20 05:15:52;;;;;;;7.30;2.35;;;21.20;96.70;;;;;;5087369;28;20433;-81
2023/09/20 05:18:20;;;;;;;6.25;2.13;;;21.20;96.70;;;;;;5069824;28;20085;-81
2023/09/20 05:20:49;;;;;;;7.95;3.28;;;21.20;96.70;;;;;;5086165;28;20058;-80
2023/09/20 05:23:31;;;;;;;8.88;2.63;;;21.20;96.70;;;;;;5086801;28;20436;-81
2023/09/20 05:25:59;;;;;;;6.60;3.20;;;21.30;96.70;;;;;;5081411;28;20097;-81
2023/09/20 05:28:28;;;;;;;6.68;3.33;;;21.30;96.70;;;;;;5086942;28;20075;-81
2023/09/20 05:30:57;;;;;;;8.98;3.22;;;21.20;96.70;;;;;;5086805;28;20160;-81
2023/09/20 05:33:30;;;;;;;10.52;3.70;;;21.20;96.70;;;;;;5065963;28;20619;-80
2023/09/20 05:35:58;;;;;;;9.90;4.03;;;21.30;96.70;;;;;;5086087;28;20044;-80
2023/09/20 05:38:28;;;;;;;11.82;4.55;;;21.30;96.70;;;;;;5069242;28;20517;-81
2023/09/20 05:40:56;;;;;;;14.85;5.85;;;21.30;96.70;;;;;;5069242;28;20139;-80
2023/09/20 05:43:24;;;;;;;12.80;5.22;;;21.30;96.70;;;;;;5086307;28;20598;-81
2023/09/20 05:45:52;;;;;;;13.40;5.70;;;21.30;96.70;;;;;;5087704;28;20083;-80
2023/09/20 05:48:19;;;;;;;13.13;5.60;;;21.20;96.70;;;;;;5085882;28;20036;-81
2023/09/20 05:50:49;;;;;;;12.93;5.38;;;21.20;96.70;;;;;;5061254;28;20555;-81
2023/09/20 05:53:17;;;;;;;11.07;5.28;;;21.30;96.70;;;;;;5086249;28;20055;-80
2023/09/20 05:55:46;;;;;;;14.15;5.25;;;21.30;96.70;;;;;;5070178;28;20181;-81
2023/09/20 05:58:15;;;;;;;17.73;6.32;;;21.30;96.70;;;;;;5069934;28;20040;-81
2023/09/20 06:00:43;;;;;;;12.00;5.97;;;21.30;96.70;;;;;;5088874;28;20786;-80
2023/09/20 06:03:12;;;;;;;14.00;6.40;;;21.30;96.70;;;;;;5061750;28;20530;-80
2023/09/20 06:05:41;;;;;;;14.88;6.00;;;21.40;96.70;;;;;;5085548;28;20036;-79
2023/09/20 06:08:11;;;;;;;13.07;5.43;;;21.40;96.70;;;;;;5085942;28;20040;-80
2023/09/20 06:10:39;;;;;;;9.95;4.82;;;21.40;96.70;;;;;;5087241;28;20044;-80
2023/09/20 06:13:09;;;;;;;13.57;4.93;;;21.40;96.70;;;;;;5085669;28;20097;-80
2023/09/20 06:15:37;;;;;;;11.18;4.13;;;21.40;96.70;;;;;;5086115;28;20050;-80
2023/09/20 06:18:08;;;;;;;11.73;4.05;;;21.40;96.70;;;;;;5069279;28;20044;-80
2023/09/20 06:20:45;;;;;;;7.45;3.60;;;21.40;96.70;;;;;;5084422;28;20036;-80
2023/09/20 06:23:14;;;;;;;12.65;3.72;;;21.50;96.70;;;;;;5086066;28;20043;-80
2023/09/20 06:25:42;;;;;;;10.63;3.58;;;21.50;96.70;;;;;;5085611;28;20383;-81
2023/09/20 06:28:15;;;;;;;9.00;3.88;;;21.60;96.70;;;;;;5080740;28;20138;-80
2023/09/20 06:30:43;;;;;;;15.68;5.10;;;21.60;96.70;;;;;;5084647;28;20504;-81
2023/09/20 06:33:13;;;;;;;12.70;4.93;;;21.60;96.70;;;;;;5084949;28;20040;-80
2023/09/20 06:35:43;;;;;;;11.13;4.45;;;21.60;96.70;;;;;;5084215;28;20036;-80
2023/09/20 06:38:11;;;;;;;12.30;4.68;;;21.70;96.70;;;;;;5100421;28;20051;-80
2023/09/20 06:40:40;;;;;;;22.90;5.68;;;21.70;96.70;;;;;;5098838;28;20074;-78
2023/09/20 06:43:08;;;;;;;10.98;4.68;;;21.70;96.70;;;;;;5095321;28;20373;-79
2023/09/20 06:45:49;;;;;;;9.13;4.07;;;21.70;96.70;;;;;;5088344;28;20547;-79
2023/09/20 06:48:20;;;;;;;8.35;4.38;;;21.80;96.70;;;;;;5088565;28;20067;-80
2023/09/20 06:50:55;;;;;;;8.20;3.88;;;21.80;96.70;;;;;;5088552;28;20043;-79
2023/09/20 06:53:23;;;;;;;11.95;4.25;;;21.80;96.70;;;;;;5103223;28;20520;-80
2023/09/20 06:55:52;;;;;;;8.15;3.55;;;21.90;96.70;;;;;;5088254;28;20046;-79
2023/09/20 06:58:21;;;;;;;11.43;3.70;;;21.90;96.70;;;;;;5084053;28;20133;-80
2023/09/20 07:00:51;;;;;;;7.57;3.45;;;22.00;96.70;;;;;;5104620;28;20067;-79
2023/09/20 07:03:20;;;;;;;10.05;4.20;;;22.10;96.70;;;;;;5086485;28;20489;-77
2023/09/20 07:05:48;;;;;;;6.78;3.63;;;22.20;96.70;;;;;;5069986;28;20059;-78
2023/09/20 07:08:17;;;;;;;8.85;2.97;;;22.20;96.70;;;;;;5071118;28;20048;-77
2023/09/20 07:10:45;;;;;;;8.82;3.30;;;22.30;96.70;;;;;;5086761;28;20052;-77
2023/09/20 07:13:17;;;;;;;8.55;2.90;;;22.40;96.70;;;;;;5066572;28;20459;-77
2023/09/20 07:15:46;;;;;;;7.43;3.25;;;22.40;96.70;;;;;;5105392;28;20048;-77
2023/09/20 07:18:17;;;;;;;8.23;3.30;;;22.50;96.70;;;;;;5070368;28;20048;-77
2023/09/20 07:20:46;;;;;;;9.65;2.88;;;22.60;96.70;;;;;;5066872;28;20070;-77
2023/09/20 07:23:15;;;;;;;6.47;2.85;;;22.60;96.70;;;;;;5105232;28;20078;-80
2023/09/20 07:25:43;;;;;;;4.72;2.53;;;22.70;96.70;;;;;;5106794;28;20046;-80
2023/09/20 07:28:12;;;;;;;5.95;2.33;;;22.70;96.70;;;;;;5129668;27;20036;-80
2023/09/20 07:30:40;;;;;;;4.85;2.55;;;22.80;96.70;;;;;;5106527;28;20355;-85
2023/09/20 07:33:12;;;;;;;6.32;2.50;;;22.80;96.70;;;;;;5082014;28;20055;-81
2023/09/20 07:35:52;;;;;;;6.35;2.35;;;22.80;96.70;;;;;;5107756;28;20039;-81
2023/09/20 07:38:27;;;;;;;5.90;2.70;;;22.80;96.70;;;;;;5084109;28;20497;-80
2023/09/20 07:41:12;;;;;;;6.45;2.28;;;22.80;96.70;;;;;;5069655;28;20044;-85
2023/09/20 07:43:44;;;;;;;9.13;2.67;;;22.80;96.70;;;;;;5086949;28;20414;-84
2023/09/20 07:46:14;;;;;;;6.30;2.83;;;22.80;96.70;;;;;;5086356;28;20494;-84
2023/09/20 07:48:50;;;;;;;8.88;2.85;;;22.80;96.70;;;;;;5076408;28;20121;-83
2023/09/20 07:51:23;;;;;;;5.75;2.22;;;22.80;96.70;;;;;;5070248;28;20561;-84
2023/09/20 07:53:55;;;;;;;9.88;2.85;;;22.80;96.70;;;;;;5086847;28;20060;-86
2023/09/20 07:56:25;;;;;;;9.02;2.97;;;22.80;96.70;;;;;;5070191;28;20140;-85
2023/09/20 07:58:56;;;;;;;7.28;2.80;;;22.80;96.70;;;;;;5078444;28;20059;-86
2023/09/20 08:01:29;;;;;;;8.77;2.47;;;22.70;96.70;;;;;;5086900;28;20039;-85
2023/09/20 08:03:58;;;;;;;7.05;2.60;;;22.70;96.70;;;;;;5081874;28;20048;-85
2023/09/20 08:06:35;;;;;;;7.93;3.10;;;22.70;96.70;;;;;;5088529;28;20048;-85
2023/09/20 08:09:06;;;;;;;9.85;2.97;;;22.70;96.70;;;;;;5081967;28;20052;-86
2023/09/20 08:11:35;;;;;;;9.45;3.60;;;22.70;96.70;;;;;;5069996;28;20135;-85
2023/09/20 08:14:04;;;;;;;7.25;2.90;;;22.80;96.70;;;;;;5069998;28;20096;-89
2023/09/20 08:16:35;;;;;;;6.80;2.70;;;22.80;96.70;;;;;;5070550;28;20047;-86
2023/09/20 08:21:42;;;;;;;6.15;3.20;;;22.90;96.70;;;;;;5087680;28;20086;-82
2023/09/20 09:00:34;;;;;;;11.57;3.13;;;23.70;96.70;;;;;;5089506;28;20071;-88
2023/09/20 09:03:04;;;;;;;10.88;3.30;;;23.60;96.70;;;;;;5077452;28;20047;-89
2023/09/20 09:05:33;;;;;;;9.02;3.00;;;23.70;96.70;;;;;;5077067;28;20059;-86
2023/09/20 09:08:03;;;;;;;9.80;3.13;;;23.70;96.70;;;;;;5073505;28;20596;-86
2023/09/20 09:10:33;;;;;;;8.63;3.08;;;23.60;96.70;;;;;;5093905;28;20516;-85
2023/09/20 09:13:01;;;;;;;6.80;3.53;;;23.70;96.70;;;;;;5093901;28;20039;-87
2023/09/20 09:15:31;;;;;;;7.47;3.38;;;23.70;96.70;;;;;;5094222;28;20606;-87
2023/09/20 09:17:59;;;;;;;10.68;3.35;;;23.80;96.70;;;;;;5093899;28;20032;-88
2023/09/20 09:20:29;;;;;;;6.70;2.83;;;23.80;96.70;;;;;;5118152;27;20512;-85
2023/09/20 09:22:58;;;;;;;10.82;3.40;;;23.80;96.70;;;;;;5076376;28;20138;-84
2023/09/20 09:25:30;;;;;;;7.20;2.50;;;23.90;96.70;;;;;;5076084;28;20071;-85
2023/09/20 09:28:02;;;;;;;8.77;2.45;;;23.90;96.70;;;;;;5093269;28;20048;-83
2023/09/20 09:30:31;;;;;;;7.10;3.15;;;24.10;96.70;;;;;;5081993;28;20051;-83
2023/09/20 09:33:00;;;;;;;10.02;2.97;;;24.30;96.70;;;;;;5066605;28;20105;-83
2023/09/20 09:35:28;;;;;;;5.15;2.28;;;24.40;96.70;;;;;;5092541;28;20477;-84
2023/09/20 09:38:20;;;;;;;12.68;2.72;;;24.50;96.70;;;;;;5110310;28;20052;-86
2023/09/20 09:40:56;;;;;;;6.97;2.60;;;24.60;96.70;;;;;;5092604;28;20040;-82
2023/09/20 09:43:28;;;;;;;10.73;2.75;;;24.60;96.70;;;;;;5111013;28;20120;-82
2023/09/20 09:46:06;;;;;;;7.40;2.30;;;24.70;96.70;;;;;;5092462;28;20075;-83
2023/09/20 09:48:37;;;;;;;8.20;3.05;;;24.80;96.70;;;;;;5092365;28;20048;-83
2023/09/20 09:51:06;;;;;;;9.82;3.17;;;24.90;96.70;;;;;;5101938;28;20108;-83
2023/09/20 09:53:37;;;;;;;7.03;2.60;;;25.00;96.70;;;;;;5092188;28;20046;-82
2023/09/20 09:56:06;;;;;;;12.07;2.83;;;25.00;96.70;;;;;;5108787;28;20043;-83
2023/09/20 09:58:35;;;;;;;9.88;2.90;;;24.80;96.70;;;;;;5110262;28;20054;-83
2023/09/20 10:01:04;;;;;;;11.30;2.55;;;24.90;96.70;;;;;;5110284;28;20092;-84
2023/09/20 10:03:40;;;;;;;10.80;3.15;;;24.90;96.70;;;;;;5110047;28;20130;-81
2023/09/20 10:06:11;;;;;;;8.70;3.33;;;25.00;96.70;;;;;;5100951;28;20397;-83
2023/09/20 10:08:41;;;;;;;10.68;3.03;;;25.10;96.70;;;;;;5110189;28;20070;-82
2023/09/20 10:11:10;;;;;;;8.88;3.38;;;25.10;96.70;;;;;;5110419;28;20054;-83
2023/09/20 10:13:41;;;;;;;9.93;3.90;;;25.30;96.70;;;;;;5074625;28;20055;-82
2023/09/20 10:16:10;;;;;;;9.20;3.38;;;25.40;96.70;;;;;;5109606;28;20044;-83
2023/09/20 10:18:56;;;;;;;13.32;4.43;;;25.50;96.70;;;;;;5092156;28;20043;-81
2023/09/20 10:21:30;;;;;;;9.80;4.30;;;25.60;96.70;;;;;;5091464;28;20108;-82
2023/09/20 10:24:05;;;;;;;8.32;3.60;;;25.50;96.70;;;;;;5101688;28;20051;-83
2023/09/20 10:26:35;;;;;;;9.07;3.47;;;25.60;96.70;;;;;;5091994;28;20147;-82
2023/09/20 10:29:26;;;;;;;12.00;4.28;;;25.70;96.70;;;;;;5075098;28;20043;-82
2023/09/20 10:32:06;;;;;;;8.25;4.03;;;25.80;96.70;;;;;;5101390;28;20662;-84
2023/09/20 10:34:37;;;;;;;10.02;3.40;;;25.80;96.70;;;;;;5091831;28;20055;-83
2023/09/20 10:37:10;;;;;;;8.35;3.58;;;25.80;96.70;;;;;;5109634;28;20270;-83
2023/09/20 10:39:42;;;;;;;8.65;2.90;;;25.80;96.70;;;;;;5074633;28;20062;-83
2023/09/20 10:42:14;;;;;;;7.88;2.65;;;25.90;96.70;;;;;;5101468;28;20057;-83
2023/09/20 10:44:45;;;;;;;8.40;2.40;;;26.00;96.70;;;;;;5090523;28;20050;-83
2023/09/20 10:47:16;;;;;;;9.65;2.85;;;26.00;96.70;;;;;;5109808;28;20043;-83
2023/09/20 10:49:50;;;;;;;6.88;2.50;;;26.10;96.70;;;;;;5091060;28;20132;-83
2023/09/20 10:53:06;;;;;;;10.82;2.33;;;26.10;96.70;;;;;;5070796;28;20073;-83
2023/09/20 10:55:39;;;;;;;7.18;2.40;;;26.10;96.70;;;;;;5109096;28;20055;-83
2023/09/20 10:58:09;;;;;;;6.30;2.17;;;26.10;96.70;;;;;;5091406;28;20067;-83
2023/09/20 11:00:38;;;;;;;5.50;1.80;;;26.20;96.70;;;;;;5109160;28;20145;-81
2023/09/20 11:03:08;;;;;;;8.65;1.88;;;26.20;96.70;;;;;;5109015;28;20100;-83
2023/09/20 11:05:38;;;;;;;11.48;2.40;;;26.20;96.70;;;;;;5108924;28;20663;-83
2023/09/20 11:08:08;;;;;;;5.80;1.58;;;26.10;96.70;;;;;;5088926;28;20101;-83
2023/09/20 11:10:36;;;;;;;6.60;2.00;;;26.00;96.70;;;;;;5090552;28;20040;-83
2023/09/20 11:13:09;;;;;;;6.45;1.90;;;25.90;96.70;;;;;;5108796;28;20048;-82
2023/09/20 11:15:43;;;;;;;3.67;1.10;;;25.80;96.70;;;;;;5073675;28;20142;-83
2023/09/20 11:18:16;;;;;;;4.72;1.38;;;25.70;96.70;;;;;;5090364;28;20047;-83
2023/09/20 11:20:44;;;;;;;4.13;1.40;;;25.60;96.70;;;;;;5090567;28;20503;-84
2023/09/20 11:23:13;;;;;;;3.65;1.20;;;25.60;96.70;;;;;;5108793;28;20043;-82
2023/09/20 11:25:42;;;;;;;4.95;1.42;;;25.70;96.70;;;;;;5090460;28;20076;-82
2023/09/20 11:28:10;;;;;;;6.43;1.27;;;25.80;96.70;;;;;;5094439;28;20572;-83
2023/09/20 11:30:43;;;;;;;7.28;1.42;;;25.90;96.70;;;;;;5108511;28;20085;-82
2023/09/20 11:33:27;;;;;;;4.75;1.30;;;26.00;96.70;;;;;;5090522;28;20058;-83
2023/09/20 11:35:55;;;;;;;7.13;1.50;;;26.20;96.70;;;;;;5073440;28;20055;-82
2023/09/20 11:38:23;;;;;;;5.03;1.67;;;26.40;96.70;;;;;;5086526;28;20113;-82
2023/09/20 11:40:52;;;;;;;5.38;1.40;;;26.50;96.70;;;;;;5086527;28;20075;-82
2023/09/20 11:43:23;;;;;;;7.13;1.42;;;26.40;96.70;;;;;;5078975;28;20123;-83
2023/09/20 11:45:53;;;;;;;6.03;1.30;;;26.30;96.70;;;;;;5086955;28;20042;-82
2023/09/20 11:48:29;;;;;;;6.32;1.20;;;26.40;96.70;;;;;;5086780;28;20071;-83
2023/09/20 11:50:57;;;;;;;5.55;1.27;;;26.50;96.70;;;;;;5089201;28;20126;-83
2023/09/20 11:53:29;;;;;;;7.25;1.27;;;26.60;96.70;;;;;;5087478;28;20050;-82
2023/09/20 11:56:01;;;;;;;5.03;1.13;;;26.70;96.70;;;;;;5086437;28;20066;-83
2023/09/20 11:58:34;;;;;;;3.85;1.23;;;26.70;96.70;;;;;;5087843;28;20410;-83
2023/09/20 12:01:06;;;;;;;3.75;1.52;;;26.60;96.70;;;;;;5069534;28;20091;-83
2023/09/20 12:03:34;;;;;;;7.10;1.30;;;26.60;96.70;;;;;;5086189;28;20047;-83
2023/09/20 12:06:03;;;;;;;3.50;1.23;;;26.60;96.70;;;;;;5069737;28;20501;-84
2023/09/20 12:08:32;;;;;;;3.00;1.08;;;26.50;96.70;;;;;;5069739;28;20047;-82
2023/09/20 12:11:00;;;;;;;4.25;1.60;;;26.50;96.70;;;;;;5086315;28;20040;-84
2023/09/20 12:13:28;;;;;;;5.18;1.70;;;26.60;96.70;;;;;;5086300;28;20050;-83
2023/09/20 12:15:56;;;;;;;6.07;1.15;;;26.60;96.70;;;;;;5086359;28;20102;-83
2023/09/20 12:18:26;;;;;;;5.63;1.40;;;26.60;96.70;;;;;;5085996;28;20052;-82
2023/09/20 12:20:55;;;;;;;4.55;1.27;;;26.60;96.70;;;;;;5087676;28;20509;-82
2023/09/20 12:23:23;;;;;;;3.88;1.15;;;26.60;96.70;;;;;;5086254;28;20071;-83
2023/09/20 12:25:52;;;;;;;8.88;1.88;;;26.60;96.70;;;;;;5086490;28;20090;-82
2023/09/20 12:28:20;;;;;;;5.57;1.38;;;26.60;96.70;;;;;;5086514;28;20047;-83
2023/09/20 12:30:49;;;;;;;4.63;1.60;;;26.70;96.70;;;;;;5087274;28;20504;-84
2023/09/20 12:33:19;;;;;;;7.13;1.80;;;26.70;96.70;;;;;;5086306;28;20086;-82
2023/09/20 12:35:49;;;;;;;6.20;1.48;;;26.70;96.70;;;;;;5086132;28;20440;-83
2023/09/20 12:38:18;;;;;;;5.65;1.58;;;26.60;96.70;;;;;;5071953;28;20056;-82
2023/09/20 12:40:47;;;;;;;3.55;1.42;;;26.60;96.70;;;;;;5104100;28;20117;-83
2023/09/20 12:43:16;;;;;;;2.58;0.93;;;26.50;96.70;;;;;;5067781;28;20098;-84
2023/09/20 12:45:44;;;;;;;5.07;1.33;;;26.40;96.70;;;;;;5096762;28;21163;-84
2023/09/20 12:48:12;;;;;;;3.33;1.15;;;26.40;96.70;;;;;;5097064;28;20047;-84
2023/09/20 12:50:42;;;;;;;3.03;1.00;;;26.40;96.70;;;;;;5105035;28;20439;-84
2023/09/20 12:53:12;;;;;;;5.25;0.70;;;26.50;96.70;;;;;;5099432;28;20569;-84
2023/09/20 12:55:40;;;;;;;4.40;1.10;;;26.60;96.70;;;;;;5096608;28;20437;-83
2023/09/20 12:58:10;;;;;;;2.45;1.05;;;26.70;96.70;;;;;;5088534;28;20054;-84
2023/09/20 13:00:39;;;;;;;7.28;1.85;;;26.80;96.70;;;;;;5096640;28;20046;-83
2023/09/20 13:03:14;;;;;;;;;;;26.80;96.70;;;;;;5089614;28;20055;-84
2023/09/20 13:05:44;;;;;;;5.60;1.40;;;26.80;96.70;;;;;;5098161;28;20285;-83
2023/09/20 13:08:19;;;;;;;4.30;1.40;;;26.70;96.70;;;;;;5093688;28;20040;-82
2023/09/20 13:10:51;;;;;;;2.60;0.85;;;26.70;96.70;;;;;;5083973;28;20052;-84
2023/09/20 13:13:21;;;;;;;3.35;1.00;;;26.70;96.70;;;;;;5095839;28;20043;-84
2023/09/20 13:15:50;;;;;;;3.00;1.05;;;26.60;96.70;;;;;;5097290;28;20050;-83
2023/09/20 13:18:18;;;;;;;4.68;1.05;;;26.50;96.70;;;;;;5083423;28;20901;-83
2023/09/20 13:20:46;;;;;;;3.35;1.10;;;26.60;96.70;;;;;;5108907;28;20477;-84
2023/09/20 13:23:16;;;;;;;5.40;1.17;;;26.70;96.70;;;;;;5095872;28;20057;-83
2023/09/20 13:25:44;;;;;;;3.78;1.00;;;26.70;96.70;;;;;;5094115;28;20366;-84
2023/09/20 13:28:12;;;;;;;4.57;1.50;;;26.80;96.70;;;;;;5099991;28;20172;-83
2023/09/20 13:30:41;;;;;;;5.63;1.65;;;26.80;96.70;;;;;;5082829;28;20074;-84
2023/09/20 13:33:12;;;;;;;3.60;1.20;;;26.90;96.70;;;;;;5108691;28;20043;-84
2023/09/20 13:35:41;;;;;;;3.78;1.15;;;26.90;96.70;;;;;;5100345;28;20131;-83
2023/09/20 13:38:09;;;;;;;3.90;1.35;;;27.00;96.70;;;;;;5082977;28;20050;-82
2023/09/20 13:40:39;;;;;;;3.90;1.23;;;27.10;96.70;;;;;;5099659;28;20070;-83